createdAt,value
2022-10-14T00:01:22.997Z,101.13
2022-10-14T00:03:51.428Z,100.55
2022-10-14T00:06:26.053Z,102.45
2022-10-14T00:08:55.003Z,95.18
2022-10-14T00:11:31.024Z,98.70
2022-10-14T00:14:06.209Z,96.63
2022-10-14T00:16:40.268Z,102.35
2022-10-14T00:19:11.887Z,101.03
2022-10-14T00:21:42.945Z,104.53
2022-10-14T00:24:16.017Z,100.18
2022-10-14T00:26:43.658Z,98.35
2022-10-14T00:29:21.076Z,102.18
2022-10-14T00:31:48.735Z,103.78
2022-10-14T00:34:16.334Z,102.50
2022-10-14T00:36:44.570Z,101.35
2022-10-14T00:39:16.063Z,102.38
2022-10-14T00:41:43.526Z,94.75
2022-10-14T00:44:13.599Z,101.53
2022-10-14T00:46:45.918Z,102.60
2022-10-14T00:49:27.887Z,101.07
2022-10-14T00:52:05.389Z,107.20
2022-10-14T00:54:48.729Z,111.45
2022-10-14T00:57:16.901Z,99.05
2022-10-14T00:59:44.252Z,103.93
2022-10-14T01:02:11.457Z,95.93
2022-10-14T01:04:41.460Z,101.90
2022-10-14T01:07:48.614Z,103.80
2022-10-14T01:10:55.593Z,102.13
2022-10-14T01:13:37.675Z,98.78
2022-10-14T01:16:39.168Z,99.28
2022-10-14T01:19:50.155Z,102.78
2022-10-14T01:22:37.135Z,89.72
2022-10-14T01:25:28.281Z,90.00
2022-10-14T01:28:24.316Z,92.65
2022-10-14T01:31:11.457Z,99.53
2022-10-14T01:33:44.884Z,97.97
2022-10-14T01:36:29.814Z,99.30
2022-10-14T01:39:27.241Z,93.45
2022-10-14T01:42:10.174Z,92.93
2022-10-14T01:44:46.862Z,98.72
2022-10-14T01:47:19.529Z,90.95
2022-10-14T01:49:58.102Z,93.72
2022-10-14T01:52:34.851Z,91.50
2022-10-14T01:55:16.846Z,95.07
2022-10-14T01:57:45.708Z,89.50
2022-10-14T02:00:15.497Z,89.03
2022-10-14T02:02:43.775Z,94.47
2022-10-14T02:05:31.159Z,96.75
2022-10-14T02:08:36.072Z,95.85
2022-10-14T02:11:19.094Z,103.50
2022-10-14T02:14:28.201Z,100.20
2022-10-14T02:17:27.694Z,102.63
2022-10-14T02:20:29.412Z,101.22
2022-10-14T02:23:25.821Z,98.63
2022-10-14T02:25:57.860Z,91.18
2022-10-14T02:28:29.488Z,91.72
2022-10-14T02:31:09.867Z,87.90
2022-10-14T02:33:44.457Z,95.95
2022-10-14T02:36:17.131Z,93.18
2022-10-14T02:38:46.737Z,94.07
2022-10-14T02:41:20.481Z,100.28
2022-10-14T02:43:48.087Z,107.80
2022-10-14T02:46:15.586Z,111.68
2022-10-14T02:48:42.818Z,116.32
2022-10-14T02:51:10.065Z,116.35
2022-10-14T02:53:38.695Z,132.40
2022-10-14T02:56:09.726Z,119.18
2022-10-14T02:58:37.024Z,125.95
2022-10-14T03:01:05.205Z,119.30
2022-10-14T03:03:33.166Z,114.43
2022-10-14T03:06:00.642Z,121.20
2022-10-14T03:08:28.894Z,116.70
2022-10-14T03:10:57.824Z,113.93
2022-10-14T03:13:27.800Z,111.32
2022-10-14T03:15:55.557Z,111.88
2022-10-14T03:18:24.433Z,107.47
2022-10-14T03:20:58.548Z,108.00
2022-10-14T03:23:32.829Z,107.93
2022-10-14T03:25:59.996Z,110.10
2022-10-14T03:28:34.193Z,109.55
2022-10-14T03:31:13.372Z,104.88
2022-10-14T03:33:53.698Z,107.38
2022-10-14T03:36:21.095Z,101.47
2022-10-14T03:38:53.750Z,99.28
2022-10-14T03:41:31.507Z,103.68
2022-10-14T03:43:59.335Z,99.53
2022-10-14T03:46:27.438Z,97.10
2022-10-14T03:48:55.051Z,99.13
2022-10-14T03:51:22.704Z,101.03
2022-10-14T03:53:50.078Z,96.05
2022-10-14T03:56:24.949Z,97.00
2022-10-14T03:58:53.807Z,95.22
2022-10-14T04:01:22.621Z,92.53
2022-10-14T04:04:07.471Z,97.05
2022-10-14T04:06:36.546Z,99.70
2022-10-14T04:09:05.695Z,103.15
2022-10-14T04:11:37.122Z,102.60
2022-10-14T04:14:09.264Z,110.53
2022-10-14T04:16:49.526Z,108.43
2022-10-14T04:19:17.748Z,115.15
2022-10-14T04:21:45.509Z,106.10
2022-10-14T04:24:12.819Z,104.05
2022-10-14T04:26:52.074Z,104.55
2022-10-14T04:29:30.830Z,101.70
2022-10-14T04:32:04.336Z,98.72
2022-10-14T04:34:31.519Z,109.75
2022-10-14T04:36:58.968Z,107.28
2022-10-14T04:39:42.337Z,107.10
2022-10-14T04:42:09.916Z,103.35
2022-10-14T04:44:37.558Z,98.10
2022-10-14T04:47:05.537Z,100.97
2022-10-14T04:49:33.504Z,98.20
2022-10-14T04:52:08.377Z,103.22
2022-10-14T04:55:05.464Z,100.22
2022-10-14T04:57:36.909Z,100.45
2022-10-14T05:00:06.568Z,104.60
2022-10-14T05:02:54.122Z,101.18
2022-10-14T05:05:27.447Z,95.25
2022-10-14T05:07:57.629Z,97.93
2022-10-14T05:10:31.391Z,99.93
2022-10-14T05:12:59.501Z,89.55
2022-10-14T05:15:31.425Z,95.63
2022-10-14T05:18:05.648Z,95.68
2022-10-14T05:20:59.868Z,98.47
2022-10-14T05:23:39.772Z,92.65
2022-10-14T05:26:10.655Z,109.28
2022-10-14T05:28:39.021Z,93.57
2022-10-14T05:31:06.942Z,89.80
2022-10-14T05:33:39.193Z,91.90
2022-10-14T05:36:07.251Z,90.22
2022-10-14T05:38:35.161Z,84.68
2022-10-14T05:41:04.093Z,86.47
2022-10-14T05:43:33.098Z,90.80
2022-10-14T05:46:02.615Z,94.50
2022-10-14T05:48:34.300Z,94.82
2022-10-14T05:51:03.314Z,92.43
2022-10-14T05:53:32.770Z,97.75
2022-10-14T06:01:13.437Z,94.47
2022-10-14T06:03:43.080Z,106.32
2022-10-14T06:06:14.533Z,115.43
2022-10-14T06:08:42.726Z,109.93
2022-10-14T06:11:09.953Z,114.63
2022-10-14T06:13:37.462Z,104.03
2022-10-14T06:16:10.129Z,95.95
2022-10-14T06:18:38.649Z,95.80
2022-10-14T06:21:07.379Z,95.18
2022-10-14T06:23:35.118Z,88.10
2022-10-14T06:26:09.678Z,106.55
2022-10-14T06:28:37.772Z,82.97
2022-10-14T06:31:06.017Z,82.35
2022-10-14T06:33:34.051Z,90.53
2022-10-14T06:36:06.944Z,80.88
2022-10-14T06:38:34.226Z,80.43
2022-10-14T06:41:01.601Z,83.82
2022-10-14T06:43:28.899Z,77.57
2022-10-14T06:45:58.401Z,78.25
2022-10-14T06:48:25.769Z,87.70
2022-10-14T06:50:53.166Z,86.40
2022-10-14T06:53:20.980Z,85.95
2022-10-14T06:55:48.225Z,85.13
2022-10-14T06:58:15.357Z,84.32
2022-10-14T07:00:47.810Z,87.25
2022-10-14T07:03:15.493Z,89.28
2022-10-14T07:05:42.601Z,88.38
2022-10-14T07:08:12.787Z,88.28
2022-10-14T07:10:42.677Z,110.03
2022-10-14T07:13:10.017Z,86.07
2022-10-14T07:15:39.238Z,84.47
2022-10-14T07:18:07.976Z,88.90
2022-10-14T07:20:35.252Z,87.03
2022-10-14T07:23:02.414Z,78.10
2022-10-14T07:25:29.544Z,77.57
2022-10-14T07:27:56.823Z,84.70
2022-10-14T07:30:24.120Z,82.43
2022-10-14T07:32:51.381Z,86.53
2022-10-14T07:35:21.660Z,81.60
2022-10-14T07:37:50.403Z,86.47
2022-10-14T07:40:17.846Z,82.50
2022-10-14T07:42:45.162Z,83.25
2022-10-14T07:45:16.246Z,83.30
2022-10-14T07:47:47.561Z,81.00
2022-10-14T07:50:14.790Z,81.93
2022-10-14T07:52:42.108Z,82.13
2022-10-14T07:55:09.706Z,81.38
2022-10-14T07:57:36.901Z,81.68
2022-10-14T08:00:05.363Z,81.60
2022-10-14T08:02:39.245Z,80.65
2022-10-14T08:07:54.100Z,84.00
2022-10-14T08:10:21.312Z,87.20
2022-10-14T08:12:48.512Z,94.05
2022-10-14T08:15:15.896Z,97.88
2022-10-14T08:17:43.143Z,103.82
2022-10-14T08:20:10.559Z,105.75
2022-10-14T08:22:37.793Z,107.15
2022-10-14T08:25:05.735Z,103.93
2022-10-14T08:27:33.072Z,96.43
2022-10-14T08:30:00.185Z,102.90
2022-10-14T08:32:29.664Z,104.25
2022-10-14T08:34:56.917Z,93.57
2022-10-14T08:37:24.222Z,98.45
2022-10-14T08:39:51.359Z,99.28
2022-10-14T08:42:45.963Z,99.55
2022-10-14T08:45:39.503Z,95.93
2022-10-14T08:48:20.356Z,92.18
2022-10-14T08:51:12.970Z,91.80
2022-10-14T08:53:56.731Z,94.32
2022-10-14T08:56:24.950Z,97.50
2022-10-14T08:58:55.967Z,99.80
2022-10-14T09:01:26.931Z,96.57
2022-10-14T09:04:13.919Z,97.72
2022-10-14T09:06:47.033Z,97.22
2022-10-14T09:09:45.503Z,95.85
2022-10-14T09:12:28.834Z,100.20
2022-10-14T09:15:28.306Z,95.65
2022-10-14T09:18:26.314Z,103.90
2022-10-14T09:20:55.444Z,103.57
2022-10-14T09:23:27.557Z,104.15
2022-10-14T09:26:19.825Z,111.13
2022-10-14T09:28:49.711Z,102.15
2022-10-14T09:31:16.906Z,109.57
2022-10-14T09:33:45.154Z,93.60
2022-10-14T09:36:21.861Z,97.30
2022-10-14T09:38:53.158Z,103.22
2022-10-14T09:41:30.488Z,92.18
2022-10-14T09:44:25.173Z,97.82
2022-10-14T09:46:58.429Z,96.93
2022-10-14T09:49:40.329Z,100.70
2022-10-14T09:52:20.576Z,93.55
2022-10-14T09:54:58.742Z,98.05
2022-10-14T09:57:27.326Z,96.88
2022-10-14T10:00:03.929Z,95.03
2022-10-14T10:02:43.597Z,90.93
2022-10-14T10:05:34.753Z,90.25
2022-10-14T10:08:13.526Z,96.93
2022-10-14T10:10:41.138Z,97.22
2022-10-14T10:13:23.384Z,92.80
2022-10-14T10:15:59.983Z,94.63
2022-10-14T10:18:27.738Z,95.75
2022-10-14T10:21:07.676Z,89.80
2022-10-14T10:23:36.461Z,91.03
2022-10-14T10:26:34.517Z,85.78
2022-10-14T10:29:05.499Z,91.85
2022-10-14T10:31:53.627Z,84.80
2022-10-14T10:34:38.075Z,88.20
2022-10-14T10:37:27.209Z,90.15
2022-10-14T10:40:35.953Z,76.65
2022-10-14T10:43:50.394Z,81.00
2022-10-14T10:46:51.594Z,85.20
2022-10-14T10:49:50.148Z,77.15
2022-10-14T10:53:16.789Z,79.35
2022-10-14T10:56:04.393Z,71.97
2022-10-14T10:59:33.462Z,77.03
2022-10-14T11:02:12.399Z,77.90
2022-10-14T11:05:22.014Z,69.15
2022-10-14T11:08:55.287Z,74.72
2022-10-14T11:12:01.632Z,79.25
2022-10-14T11:15:09.711Z,72.47
2022-10-14T11:18:02.604Z,66.65
2022-10-14T11:21:13.877Z,67.38
2022-10-14T11:23:59.620Z,75.18
2022-10-14T11:27:09.533Z,65.53
2022-10-14T11:30:18.574Z,70.25
2022-10-14T11:33:39.729Z,71.82
2022-10-14T11:36:31.565Z,67.97
2022-10-14T11:39:12.603Z,76.65
2022-10-14T11:42:13.662Z,68.82
2022-10-14T11:44:43.542Z,71.35
2022-10-14T11:47:19.770Z,71.90
2022-10-14T11:50:29.670Z,67.55
2022-10-14T11:53:13.215Z,71.60
2022-10-14T11:55:50.602Z,67.13
2022-10-14T11:58:25.601Z,66.78
2022-10-14T12:01:15.096Z,61.47
2022-10-14T12:03:51.966Z,67.13
2022-10-14T12:06:47.221Z,75.20
2022-10-14T12:09:28.324Z,61.85
2022-10-14T12:12:06.891Z,70.15
2022-10-14T12:14:46.725Z,61.65
2022-10-14T12:17:51.220Z,68.93
2022-10-14T12:20:51.634Z,76.45
2022-10-14T12:23:49.549Z,75.03
2022-10-14T12:26:49.054Z,73.55
2022-10-14T12:29:43.796Z,71.80
2022-10-14T12:32:21.986Z,75.22
2022-10-14T12:34:56.524Z,79.18
2022-10-14T12:37:34.840Z,82.20
2022-10-14T12:40:02.637Z,87.95
2022-10-14T12:42:44.046Z,84.22
2022-10-14T12:45:25.172Z,84.00
2022-10-14T12:48:24.079Z,83.45
2022-10-14T12:51:11.046Z,88.07
2022-10-14T12:53:53.014Z,86.95
2022-10-14T12:56:45.015Z,86.72
2022-10-14T12:59:49.136Z,83.40
2022-10-14T13:02:32.385Z,85.90
2022-10-14T13:05:23.068Z,82.40
2022-10-14T13:08:25.710Z,82.30
2022-10-14T13:11:14.859Z,80.47
2022-10-14T13:13:42.135Z,78.53
2022-10-14T13:16:21.564Z,77.13
2022-10-14T13:18:58.300Z,78.20
2022-10-14T13:21:34.674Z,83.43
2022-10-14T13:24:41.657Z,88.50
2022-10-14T13:27:45.857Z,87.03
2022-10-14T13:30:34.769Z,82.05
2022-10-14T13:33:21.800Z,82.50
2022-10-14T13:36:14.101Z,75.93
2022-10-14T13:38:53.040Z,80.90
2022-10-14T13:41:30.918Z,78.90
2022-10-14T13:44:00.846Z,78.22
2022-10-14T13:46:39.662Z,76.40
2022-10-14T13:49:17.779Z,72.45
2022-10-14T13:51:59.809Z,78.90
2022-10-14T13:54:32.566Z,78.05
2022-10-14T13:57:38.741Z,74.93
2022-10-14T14:02:53.349Z,74.60
2022-10-14T14:11:23.102Z,76.78
2022-10-14T14:14:12.544Z,75.03
2022-10-14T14:16:56.177Z,78.57
2022-10-14T14:19:36.302Z,74.78
2022-10-14T14:22:24.344Z,72.35
2022-10-14T14:24:52.485Z,69.47
2022-10-14T14:27:26.579Z,68.88
2022-10-14T14:29:55.161Z,68.28
2022-10-14T14:32:31.564Z,74.90
2022-10-14T14:35:00.234Z,67.43
2022-10-14T14:37:52.883Z,70.22
2022-10-14T14:40:31.094Z,68.00
2022-10-14T14:43:04.599Z,71.65
2022-10-14T14:45:42.538Z,71.47
2022-10-14T14:48:13.493Z,73.28
2022-10-14T14:50:44.427Z,81.43
2022-10-14T14:53:22.067Z,69.15
2022-10-14T14:56:10.537Z,67.97
2022-10-14T14:58:52.991Z,69.88
2022-10-14T15:01:30.865Z,76.45
2022-10-14T15:04:11.970Z,64.68
2022-10-14T15:06:50.942Z,73.15
2022-10-14T15:09:55.953Z,68.53
2022-10-14T15:12:26.496Z,65.85
2022-10-14T15:15:00.502Z,66.60
2022-10-14T15:17:47.577Z,67.38
2022-10-14T15:22:51.707Z,66.00
2022-10-14T15:28:05.383Z,69.68
2022-10-14T15:30:39.626Z,67.28
2022-10-14T15:33:23.129Z,64.28
2022-10-14T15:36:04.479Z,67.25
2022-10-14T15:41:05.655Z,67.25
2022-10-14T15:43:34.673Z,63.38
2022-10-14T15:46:20.682Z,70.40
2022-10-14T15:48:54.905Z,70.05
2022-10-14T15:51:24.331Z,68.68
2022-10-14T15:53:51.911Z,62.03
2022-10-14T15:56:20.927Z,66.80
2022-10-14T15:58:49.055Z,65.32
2022-10-14T16:01:21.917Z,60.55
2022-10-14T16:03:52.252Z,62.83
2022-10-14T16:06:22.423Z,62.72
2022-10-14T16:08:49.653Z,65.13
2022-10-14T16:11:28.770Z,71.28
2022-10-14T16:13:56.680Z,73.95
2022-10-14T16:16:43.048Z,64.25
2022-10-14T16:19:11.497Z,64.80
2022-10-14T16:21:40.224Z,65.40
2022-10-14T16:24:16.026Z,70.53
2022-10-14T16:26:43.302Z,65.30
2022-10-14T16:29:11.856Z,68.15
2022-10-14T16:31:39.268Z,72.43
2022-10-14T16:34:06.611Z,66.10
2022-10-14T16:36:33.897Z,71.30
2022-10-14T16:39:03.615Z,74.18
2022-10-14T16:41:31.187Z,67.70
2022-10-14T16:43:58.416Z,68.57
2022-10-14T16:46:45.674Z,67.22
2022-10-14T16:49:12.909Z,70.22
2022-10-14T16:51:42.430Z,71.15
2022-10-14T16:54:11.274Z,63.47
2022-10-14T16:56:53.838Z,69.28
2022-10-14T16:59:22.958Z,72.72
2022-10-14T17:01:51.706Z,71.97
2022-10-14T17:04:23.113Z,69.90
2022-10-14T17:06:58.565Z,71.00
2022-10-14T17:09:26.025Z,68.22
2022-10-14T17:11:54.783Z,70.10
2022-10-14T17:14:23.985Z,75.57
2022-10-14T17:16:53.954Z,68.50
2022-10-14T17:19:21.720Z,77.63
2022-10-14T17:21:49.030Z,83.32
2022-10-14T17:24:16.910Z,71.97
2022-10-14T17:26:47.681Z,70.05
2022-10-14T17:29:14.968Z,71.37
2022-10-14T17:31:44.886Z,71.93
2022-10-14T17:34:12.153Z,72.35
2022-10-14T17:36:41.438Z,73.82
2022-10-14T17:39:18.692Z,71.28
2022-10-14T17:41:52.522Z,74.25
2022-10-14T17:44:19.757Z,72.13
2022-10-14T17:46:47.043Z,72.65
2022-10-14T17:49:14.977Z,74.28
2022-10-14T17:51:42.573Z,69.70
2022-10-14T17:54:12.309Z,69.90
2022-10-14T17:56:40.881Z,70.95
2022-10-14T17:59:13.882Z,76.40
2022-10-14T18:02:01.528Z,75.20
2022-10-14T18:04:28.597Z,78.63
2022-10-14T18:06:56.124Z,75.40
2022-10-14T18:09:23.426Z,76.95
2022-10-14T18:14:40.611Z,81.88
2022-10-14T18:17:12.255Z,85.13
2022-10-14T18:19:41.074Z,75.63
2022-10-14T18:22:10.876Z,82.78
2022-10-14T18:24:39.215Z,81.45
2022-10-14T18:27:07.221Z,86.35
2022-10-14T18:29:34.527Z,86.95
2022-10-14T18:32:01.688Z,79.18
2022-10-14T18:34:29.020Z,82.50
2022-10-14T18:36:56.265Z,82.10
2022-10-14T18:39:23.566Z,88.95
2022-10-14T18:41:50.676Z,77.88
2022-10-14T18:44:18.333Z,85.97
2022-10-14T18:46:47.425Z,82.28
2022-10-14T18:49:14.768Z,83.43
2022-10-14T18:51:43.263Z,84.07
2022-10-14T18:54:20.456Z,88.00
2022-10-14T18:56:48.007Z,85.20
2022-10-14T18:59:22.982Z,87.53
2022-10-14T19:01:54.138Z,84.47
2022-10-14T19:04:26.800Z,84.13
2022-10-14T19:06:54.067Z,92.80
2022-10-14T19:09:28.892Z,94.53
2022-10-14T19:11:58.875Z,90.43
2022-10-14T19:14:28.507Z,92.10
2022-10-14T19:16:55.741Z,101.05
2022-10-14T19:19:22.848Z,88.93
2022-10-14T19:21:54.253Z,93.95
2022-10-14T19:24:21.875Z,92.95
2022-10-14T19:26:49.957Z,95.85
2022-10-14T19:29:17.794Z,92.18
2022-10-14T19:31:45.328Z,95.32
2022-10-14T19:34:16.145Z,103.68
2022-10-14T19:36:45.196Z,95.93
2022-10-14T19:39:16.216Z,91.53
2022-10-14T19:41:44.623Z,94.25
2022-10-14T19:44:14.821Z,89.20
2022-10-14T19:46:44.291Z,90.57
2022-10-14T19:49:15.266Z,94.78
2022-10-14T19:51:42.483Z,92.07
2022-10-14T19:54:12.741Z,96.40
2022-10-14T19:56:40.214Z,94.40
2022-10-14T19:59:08.045Z,99.05
2022-10-14T20:01:35.740Z,94.15
2022-10-14T20:04:03.471Z,118.90
2022-10-14T20:06:34.241Z,139.00
2022-10-14T20:09:02.959Z,139.13
2022-10-14T20:11:31.240Z,140.25
2022-10-14T20:13:58.832Z,130.15
2022-10-14T20:16:27.235Z,114.40
2022-10-14T20:18:55.956Z,113.75
2022-10-14T20:21:23.769Z,115.78
2022-10-14T20:23:51.371Z,106.95
2022-10-14T20:26:21.803Z,103.40
2022-10-14T20:28:50.381Z,103.55
2022-10-14T20:31:22.343Z,105.68
2022-10-14T20:33:49.603Z,102.32
2022-10-14T20:36:21.140Z,108.05
2022-10-14T20:38:49.671Z,100.47
2022-10-14T20:41:24.408Z,100.72
2022-10-14T20:43:53.867Z,101.20
2022-10-14T20:46:22.584Z,101.47
2022-10-14T20:48:55.443Z,100.47
2022-10-14T20:51:23.663Z,103.60
2022-10-14T20:54:01.629Z,105.75
2022-10-14T20:56:33.458Z,103.18
2022-10-14T20:59:05.902Z,101.40
2022-10-14T21:01:35.204Z,103.35
2022-10-14T21:04:07.144Z,112.03
2022-10-14T21:06:35.610Z,109.15
2022-10-14T21:09:03.824Z,110.03
2022-10-14T21:11:31.223Z,119.95
2022-10-14T21:14:00.508Z,108.35
2022-10-14T21:16:35.748Z,113.97
2022-10-14T21:19:09.882Z,107.15
2022-10-14T21:21:45.290Z,101.72
2022-10-14T21:24:18.114Z,112.28
2022-10-14T21:26:50.602Z,108.15
2022-10-14T21:29:20.496Z,112.20
2022-10-14T21:31:49.473Z,104.43
2022-10-14T21:34:16.789Z,112.60
2022-10-14T21:36:44.759Z,110.82
2022-10-14T21:39:16.339Z,102.28
2022-10-14T21:41:44.452Z,111.38
2022-10-14T21:44:17.840Z,104.13
2022-10-14T21:46:45.437Z,109.07
2022-10-14T21:49:13.379Z,107.45
2022-10-14T21:51:41.158Z,106.60
2022-10-14T21:54:10.898Z,110.05
2022-10-14T21:56:38.856Z,113.65
2022-10-14T21:59:06.854Z,107.80
2022-10-14T22:01:34.659Z,109.47
2022-10-14T22:04:05.864Z,108.78
2022-10-14T22:06:35.418Z,115.30
2022-10-14T22:09:07.027Z,113.00
2022-10-14T22:11:41.155Z,113.65
2022-10-14T22:14:14.893Z,115.00
2022-10-14T22:16:42.202Z,118.15
2022-10-14T22:19:12.478Z,122.53
2022-10-14T22:21:43.068Z,120.35
2022-10-14T22:24:13.073Z,118.32
2022-10-14T22:26:41.011Z,116.97
2022-10-14T22:29:17.600Z,108.75
2022-10-14T22:31:45.990Z,120.70
2022-10-14T22:34:17.572Z,115.10
2022-10-14T22:36:45.705Z,119.82
2022-10-14T22:39:16.268Z,118.10
2022-10-14T22:41:43.684Z,120.13
2022-10-14T22:44:11.623Z,136.27
2022-10-14T22:46:40.319Z,132.40
2022-10-14T22:49:07.946Z,126.72
2022-10-14T22:51:42.821Z,134.00
2022-10-14T22:54:11.056Z,123.35
2022-10-14T22:56:38.805Z,136.27
2022-10-14T22:59:11.707Z,138.07
2022-10-14T23:01:42.051Z,132.85
2022-10-14T23:04:10.981Z,122.82
2022-10-14T23:06:40.408Z,128.02
2022-10-14T23:09:07.597Z,126.15
2022-10-14T23:11:34.790Z,119.75
2022-10-14T23:14:06.263Z,119.40
2022-10-14T23:16:36.050Z,117.57
2022-10-14T23:19:03.372Z,111.68
2022-10-14T23:21:36.424Z,115.22
2022-10-14T23:24:11.435Z,119.45
2022-10-14T23:26:39.026Z,115.72
2022-10-14T23:29:11.465Z,111.93
2022-10-14T23:31:40.778Z,111.95
2022-10-14T23:34:13.089Z,114.03
2022-10-14T23:36:40.905Z,107.80
2022-10-14T23:39:08.597Z,108.13
2022-10-14T23:41:35.836Z,105.18
2022-10-14T23:44:03.240Z,109.53
2022-10-14T23:46:30.729Z,102.72
2022-10-14T23:49:07.541Z,107.28
2022-10-14T23:51:45.190Z,107.50
2022-10-14T23:54:12.542Z,105.43
2022-10-14T23:56:39.935Z,98.22
2022-10-14T23:59:07.164Z,100.75
